Baiting Hollow, New York
Current Conditions -  °F | °C
As of 2:53 PM on Thursday 30 Oct 2014 (Local Time) from KFOK Reporting Station
Overcast Overcast  
Wind Chill: 57°   Ceiling: 6500
Heat Index: 57°   Visibility: 10mi
Dew Point: 39°   Wind: 6mph
Humidity: 51%   Direction: 340°NNW
Pressure: 29.96"   Gusts: NA
Location:  40.9282°N, 72.7588°W
Report Text: KFOK 301853Z 34005KT 10SM OVC065 14/04 A2996 RMK AO2 SLP145 T01390039
Loading
Personal Weather Stations






























Interactive Weather Map
Tropical Storm Tracking
New forecast layout! Learn more

10-Day Weather Forecast

Advertisements
Track Severe Weather on mobile